Time;durP1;ratioP1;P1;durP2;ratioP2;P2;SDS_P1;SDS_P2;PMS_P1;PMS_P2;Temp;Humidity;BMP_temperature;BMP_pressure;BME280_temperature;BME280_humidity;BME280_pressure;Samples;Min_cycle;Max_cycle;Signal;HPM_P1;HPM_P2
2023/05/16 00:02:08;;;;;;;1999.90;999.90;;;7.80;99.90;;;;;;5029623;28;20030;-85
2023/05/16 00:04:35;;;;;;;1999.90;999.90;;;7.80;99.90;;;;;;5031275;28;20028;-84
2023/05/16 00:07:01;;;;;;;1999.90;999.90;;;7.70;99.90;;;;;;5028155;28;20515;-87
2023/05/16 00:09:28;;;;;;;1999.90;999.90;;;7.70;99.90;;;;;;5033209;28;20038;-89
2023/05/16 00:11:53;;;;;;;1999.90;999.90;;;7.80;99.90;;;;;;5033700;28;20040;-85
2023/05/16 00:14:19;;;;;;;1999.90;999.90;;;7.90;99.90;;;;;;5032395;28;20025;-86
2023/05/16 00:16:46;;;;;;;1999.90;999.90;;;7.90;99.90;;;;;;5015712;28;20033;-86
2023/05/16 00:19:12;;;;;;;1999.90;999.90;;;7.90;99.90;;;;;;5015954;28;20499;-86
2023/05/16 00:21:38;;;;;;;1999.90;999.90;;;7.90;99.90;;;;;;5031148;28;20084;-87
2023/05/16 00:24:04;;;;;;;1999.90;999.90;;;7.90;99.90;;;;;;5027148;28;20030;-86
2023/05/16 00:26:29;;;;;;;1999.90;999.90;;;8.00;99.90;;;;;;5029614;28;20131;-88
2023/05/16 00:28:55;;;;;;;1999.90;999.90;;;8.10;99.90;;;;;;5030195;28;20049;-87
2023/05/16 00:31:21;;;;;;;1999.90;999.90;;;7.90;99.90;;;;;;5030982;28;20036;-85
2023/05/16 00:33:46;;;;;;;1999.90;999.90;;;7.90;99.90;;;;;;5030896;28;20034;-86
2023/05/16 00:36:12;;;;;;;1999.90;999.90;;;7.80;99.90;;;;;;5034965;28;20074;-84
2023/05/16 00:38:38;;;;;;;1999.90;999.90;;;7.70;99.90;;;;;;5034396;28;20075;-86
2023/05/16 00:41:03;;;;;;;1999.90;999.90;;;7.70;99.90;;;;;;5036226;28;20491;-86
2023/05/16 00:43:29;;;;;;;1999.90;999.90;;;7.70;99.90;;;;;;5033393;28;20127;-86
2023/05/16 00:45:56;;;;;;;1999.90;999.90;;;7.70;99.90;;;;;;5031008;28;20036;-84
2023/05/16 00:48:22;;;;;;;1999.90;999.90;;;7.80;99.90;;;;;;5021753;28;20041;-86
2023/05/16 00:50:49;;;;;;;1999.90;999.90;;;7.90;99.90;;;;;;5034185;28;20414;-87
2023/05/16 00:53:15;;;;;;;1999.90;999.90;;;7.90;99.90;;;;;;5033690;28;20036;-84
2023/05/16 00:55:41;;;;;;;1999.90;999.90;;;8.00;99.90;;;;;;5028278;28;20025;-85
2023/05/16 00:58:10;;;;;;;1999.90;999.90;;;8.00;99.90;;;;;;5019001;28;20061;-87
2023/05/16 01:00:36;;;;;;;1999.90;999.90;;;8.10;99.90;;;;;;5029361;28;20094;-88
2023/05/16 01:03:04;;;;;;;1999.90;999.90;;;8.10;99.90;;;;;;5030667;28;20098;-89
2023/05/16 01:05:30;;;;;;;1999.90;999.90;;;8.20;99.90;;;;;;5031212;28;20030;-86
2023/05/16 01:07:56;;;;;;;1999.90;999.90;;;8.10;99.90;;;;;;5025530;28;20038;-89
2023/05/16 01:10:23;;;;;;;1999.90;999.90;;;8.20;99.90;;;;;;5027275;28;20103;-84
2023/05/16 01:13:11;;;;;;;1999.90;999.90;;;8.20;99.90;;;;;;5030594;28;20037;-88
2023/05/16 01:15:48;;;;;;;1999.90;999.90;;;8.30;99.90;;;;;;5026930;28;20070;-86
2023/05/16 01:18:55;;;;;;;1999.90;999.90;;;8.40;99.90;;;;;;5027443;28;20044;-85
2023/05/16 01:21:47;;;;;;;1999.90;999.90;;;8.30;99.90;;;;;;5022957;28;20081;-85
2023/05/16 01:24:30;;;;;;;1999.90;999.90;;;8.20;99.90;;;;;;5031615;28;20033;-87
2023/05/16 01:26:58;;;;;;;1999.90;999.90;;;8.10;99.90;;;;;;5028085;28;20049;-87
2023/05/16 01:29:24;;;;;;;1999.90;999.90;;;8.10;99.90;;;;;;5040067;28;20065;-86
2023/05/16 01:31:50;;;;;;;1999.90;999.90;;;8.10;99.90;;;;;;5023973;28;20029;-86
2023/05/16 01:34:17;;;;;;;1999.90;999.90;;;8.10;99.90;;;;;;5030860;28;20031;-86
2023/05/16 01:36:52;;;;;;;1999.90;999.90;;;8.00;99.90;;;;;;5037500;28;20248;-84
2023/05/16 01:39:46;;;;;;;1999.90;999.90;;;8.00;99.90;;;;;;5022154;28;20028;-84
2023/05/16 01:42:18;;;;;;;1999.90;999.90;;;8.00;99.90;;;;;;5029252;28;20033;-84
2023/05/16 01:45:00;;;;;;;1999.90;999.90;;;7.90;99.90;;;;;;5026410;28;20033;-86
2023/05/16 01:47:28;;;;;;;1999.90;999.90;;;7.90;99.90;;;;;;5019353;28;20112;-85
2023/05/16 01:50:00;;;;;;;1999.90;999.90;;;7.90;99.90;;;;;;5028623;28;20033;-86
2023/05/16 01:52:41;;;;;;;1999.90;999.90;;;7.90;99.90;;;;;;5036823;28;20029;-85
2023/05/16 01:55:13;;;;;;;1999.90;999.90;;;7.90;99.90;;;;;;5031178;28;20035;-88
2023/05/16 01:57:42;;;;;;;1999.90;999.90;;;7.80;99.90;;;;;;5030269;28;20029;-86
2023/05/16 02:00:08;;;;;;;1999.90;999.90;;;7.90;99.90;;;;;;5043859;28;20495;-88
2023/05/16 02:02:34;;;;;;;1999.90;999.90;;;7.90;99.90;;;;;;5022255;28;20100;-85
2023/05/16 02:04:59;;;;;;;1999.90;999.90;;;7.90;99.90;;;;;;5028246;28;20403;-85
2023/05/16 02:07:26;;;;;;;1999.90;999.90;;;7.90;99.90;;;;;;5024997;28;20029;-85
2023/05/16 02:09:51;;;;;;;1999.90;999.90;;;8.00;99.90;;;;;;5016629;28;20469;-84
2023/05/16 02:12:18;;;;;;;1999.90;999.90;;;8.10;99.90;;;;;;5033860;28;20116;-88
2023/05/16 02:14:45;;;;;;;1999.90;999.90;;;8.10;99.90;;;;;;5028416;28;20085;-85
2023/05/16 02:17:11;;;;;;;1999.90;999.90;;;8.10;99.90;;;;;;5035819;28;20037;-82
2023/05/16 02:19:36;;;;;;;1999.90;999.90;;;8.10;99.90;;;;;;5027343;28;20054;-87
2023/05/16 02:22:02;;;;;;;1999.90;999.90;;;8.10;99.90;;;;;;5027619;28;20091;-84
2023/05/16 02:24:28;;;;;;;1999.90;999.90;;;8.10;99.90;;;;;;5028580;28;20029;-86
2023/05/16 02:26:53;;;;;;;1999.90;999.90;;;8.10;99.90;;;;;;5020812;28;20054;-83
2023/05/16 02:29:19;;;;;;;1999.90;999.90;;;8.10;99.90;;;;;;5025368;28;20188;-85
2023/05/16 02:31:45;;;;;;;1999.90;999.90;;;8.10;99.90;;;;;;5026993;28;20034;-83
2023/05/16 02:34:10;;;;;;;1999.90;999.90;;;8.10;99.90;;;;;;5034289;28;20040;-88
2023/05/16 02:36:36;;;;;;;1999.90;999.90;;;8.10;99.90;;;;;;5029072;28;20037;-86
2023/05/16 02:39:03;;;;;;;1999.90;999.90;;;8.20;99.90;;;;;;5026630;28;20045;-85
2023/05/16 02:41:29;;;;;;;1999.90;999.90;;;8.10;99.90;;;;;;5031987;28;20025;-89
2023/05/16 02:43:54;;;;;;;1999.90;999.90;;;8.10;99.90;;;;;;5026292;28;20080;-86
2023/05/16 02:46:29;;;;;;;1999.90;999.90;;;8.00;99.90;;;;;;5029811;28;20528;-85
2023/05/16 02:48:56;;;;;;;1999.90;999.90;;;7.80;99.90;;;;;;5030298;28;20041;-88
2023/05/16 02:51:23;;;;;;;1999.90;999.90;;;7.80;99.90;;;;;;5031848;28;20037;-82
2023/05/16 02:53:49;;;;;;;1999.90;999.90;;;7.70;99.90;;;;;;5024983;28;20029;-84
2023/05/16 02:56:35;;;;;;;1999.90;999.90;;;7.60;99.90;;;;;;5022727;28;20029;-89
2023/05/16 02:59:00;;;;;;;1999.90;999.90;;;7.50;99.90;;;;;;5031258;28;20114;-86
2023/05/16 03:01:26;;;;;;;1999.90;999.90;;;7.50;99.90;;;;;;5028635;28;20137;-86
2023/05/16 03:03:52;;;;;;;1999.90;999.90;;;7.40;99.90;;;;;;5032896;28;20038;-83
2023/05/16 03:06:18;;;;;;;1999.90;999.90;;;7.40;99.90;;;;;;5032938;28;20058;-89
2023/05/16 03:08:43;;;;;;;1999.90;999.90;;;7.40;99.90;;;;;;5027497;28;20025;-86
2023/05/16 03:11:09;;;;;;;1999.90;999.90;;;7.40;99.90;;;;;;5027261;28;20495;-85
2023/05/16 03:13:36;;;;;;;1999.90;999.90;;;7.40;99.90;;;;;;5027026;28;20079;-85
2023/05/16 03:16:02;;;;;;;1999.90;999.90;;;7.40;99.90;;;;;;5027095;28;20116;-83
2023/05/16 03:18:27;;;;;;;1999.90;999.90;;;7.40;99.90;;;;;;5032998;28;20553;-87
2023/05/16 03:20:53;;;;;;;1999.90;999.90;;;7.30;99.90;;;;;;5026617;28;20034;-85
2023/05/16 03:23:20;;;;;;;1999.90;999.90;;;7.30;99.90;;;;;;5028631;28;20041;-84
2023/05/16 03:25:47;;;;;;;1999.90;999.90;;;7.20;99.90;;;;;;5023515;28;20072;-83
2023/05/16 03:28:12;;;;;;;1999.90;999.90;;;7.20;99.90;;;;;;5031559;28;20037;-83
2023/05/16 03:30:40;;;;;;;1999.90;999.90;;;7.20;99.90;;;;;;5024171;28;20032;-86
2023/05/16 03:33:06;;;;;;;1999.90;999.90;;;7.10;99.90;;;;;;5012166;28;20499;-85
2023/05/16 03:35:33;;;;;;;1999.90;999.90;;;7.10;99.90;;;;;;5023418;28;20039;-85
2023/05/16 03:37:59;;;;;;;1999.90;999.90;;;7.20;99.90;;;;;;5027748;28;20108;-84
2023/05/16 03:40:24;;;;;;;1999.90;999.90;;;7.20;99.90;;;;;;5027504;28;20031;-84
2023/05/16 03:42:50;;;;;;;1999.90;999.90;;;7.00;99.90;;;;;;5027535;28;20030;-85
2023/05/16 03:45:16;;;;;;;1999.90;999.90;;;7.00;99.90;;;;;;5031929;28;20044;-86
2023/05/16 03:47:42;;;;;;;1999.90;999.90;;;6.90;99.90;;;;;;5029693;28;20991;-87
2023/05/16 03:50:08;;;;;;;1999.90;999.90;;;6.90;99.90;;;;;;5029960;28;20026;-84
2023/05/16 03:52:35;;;;;;;1999.90;999.90;;;7.00;99.90;;;;;;5023521;28;20030;-84
2023/05/16 03:55:02;;;;;;;1999.90;999.90;;;7.00;99.90;;;;;;5028388;28;20036;-84
2023/05/16 03:57:31;;;;;;;1999.90;999.90;;;6.90;99.90;;;;;;5030692;28;20033;-85
2023/05/16 03:59:56;;;;;;;1999.90;999.90;;;6.80;99.90;;;;;;5044593;28;20084;-83
2023/05/16 04:02:22;;;;;;;1999.90;999.90;;;6.80;99.90;;;;;;5034567;28;20055;-82
2023/05/16 04:04:48;;;;;;;1999.90;999.90;;;6.90;99.90;;;;;;5027586;28;20106;-86
2023/05/16 04:07:15;;;;;;;1999.90;999.90;;;7.00;99.90;;;;;;5033476;28;20029;-86
2023/05/16 04:09:40;;;;;;;1999.90;999.90;;;7.10;99.90;;;;;;5011858;28;20025;-90
2023/05/16 04:12:06;;;;;;;1999.90;999.90;;;7.20;99.90;;;;;;5023715;28;20132;-84
2023/05/16 04:14:33;;;;;;;1999.90;999.90;;;7.30;99.90;;;;;;5030661;28;20060;-82
2023/05/16 04:16:59;;;;;;;1999.90;999.90;;;7.40;99.90;;;;;;5014174;28;20033;-85
2023/05/16 04:19:25;;;;;;;1999.90;999.90;;;7.50;99.90;;;;;;5027971;28;20045;-88
2023/05/16 04:21:57;;;;;;;1999.90;999.90;;;7.70;99.90;;;;;;5021357;28;20092;-85
2023/05/16 04:24:25;;;;;;;1999.90;999.90;;;7.70;99.90;;;;;;5032457;28;20033;-84
2023/05/16 04:26:51;;;;;;;1999.90;999.90;;;7.70;99.90;;;;;;5032702;28;20061;-85
2023/05/16 04:29:17;;;;;;;1999.90;999.90;;;7.80;99.90;;;;;;5028383;28;20049;-83
2023/05/16 04:31:43;;;;;;;1999.90;999.90;;;7.80;99.90;;;;;;5037173;28;20447;-86
2023/05/16 04:34:11;;;;;;;1999.90;999.90;;;7.90;99.90;;;;;;5033862;28;20062;-84
2023/05/16 04:36:37;;;;;;;1999.90;999.90;;;8.10;99.90;;;;;;5018134;28;20022;-86
2023/05/16 04:39:03;;;;;;;1999.90;999.90;;;8.20;99.90;;;;;;5029889;28;20021;-87
2023/05/16 04:41:29;;;;;;;1999.90;999.90;;;8.30;99.90;;;;;;5009998;28;20037;-82
2023/05/16 04:43:55;;;;;;;1999.90;999.90;;;8.30;99.90;;;;;;5029467;28;20076;-85
2023/05/16 04:46:21;;;;;;;1999.90;999.90;;;8.20;99.90;;;;;;5027830;28;20045;-86
2023/05/16 04:48:46;;;;;;;1999.90;999.90;;;8.10;99.90;;;;;;5011129;28;20040;-88
2023/05/16 04:51:12;;;;;;;1999.90;999.90;;;8.20;99.90;;;;;;5027598;28;20057;-86
2023/05/16 04:53:38;;;;;;;1999.90;999.90;;;8.20;99.90;;;;;;5026730;28;20033;-86
2023/05/16 04:56:05;;;;;;;1999.90;999.90;;;8.50;99.90;;;;;;5027836;28;20479;-88
2023/05/16 04:58:31;;;;;;;1999.90;999.90;;;8.40;99.90;;;;;;5027734;28;20113;-88
2023/05/16 05:00:56;;;;;;;1999.90;999.90;;;8.50;99.90;;;;;;5030508;28;20180;-88
2023/05/16 05:03:24;;;;;;;1999.90;999.90;;;8.60;99.90;;;;;;5031997;28;20076;-88
2023/05/16 05:05:50;;;;;;;1999.90;999.90;;;8.80;99.90;;;;;;5030311;28;20121;-87
2023/05/16 05:08:17;;;;;;;1999.90;999.90;;;9.00;99.90;;;;;;5027920;28;20045;-85
2023/05/16 05:10:42;;;;;;;1999.90;999.90;;;9.00;99.90;;;;;;5025763;28;20046;-87
2023/05/16 05:13:09;;;;;;;1999.90;999.90;;;9.10;99.90;;;;;;5029602;28;20087;-88
2023/05/16 05:15:35;;;;;;;1999.90;999.90;;;9.10;99.90;;;;;;5037241;28;20441;-86
2023/05/16 05:18:00;;;;;;;1999.90;999.90;;;9.20;99.90;;;;;;5031566;28;20037;-87
2023/05/16 05:20:26;;;;;;;1999.90;999.90;;;9.20;99.90;;;;;;5036569;28;20087;-87
2023/05/16 05:22:53;;;;;;;1999.90;999.90;;;9.10;99.90;;;;;;5030838;28;20050;-87
2023/05/16 05:25:18;;;;;;;1999.90;999.90;;;9.30;99.90;;;;;;5031245;28;20041;-88
2023/05/16 05:27:44;;;;;;;1999.90;999.90;;;9.50;99.90;;;;;;5024710;28;20045;-88
2023/05/16 05:30:11;;;;;;;1999.90;999.90;;;9.60;99.90;;;;;;5031080;28;20099;-87
2023/05/16 05:32:37;;;;;;;1999.90;999.90;;;9.70;99.90;;;;;;5031887;28;20122;-86
2023/05/16 05:35:03;;;;;;;1999.90;999.90;;;9.60;99.90;;;;;;5037339;28;20025;-87
2023/05/16 05:37:29;;;;;;;1999.90;999.90;;;9.70;99.90;;;;;;5030376;28;20036;-84
2023/05/16 05:39:58;;;;;;;1999.90;999.90;;;9.60;99.90;;;;;;5032232;28;20034;-88
2023/05/16 05:42:24;;;;;;;1999.90;999.90;;;9.70;99.90;;;;;;5032803;28;20140;-87
2023/05/16 05:44:50;;;;;;;1999.90;999.90;;;9.60;99.90;;;;;;5031399;28;20113;-86
2023/05/16 05:47:15;;;;;;;1999.90;999.90;;;9.70;99.90;;;;;;5035593;28;20037;-87
2023/05/16 05:49:41;;;;;;;1999.90;999.90;;;9.70;99.90;;;;;;5025198;28;20096;-88
2023/05/16 05:52:07;;;;;;;1999.90;999.90;;;9.90;99.90;;;;;;5031899;28;20090;-86
2023/05/16 05:54:33;;;;;;;1999.90;999.90;;;10.00;99.90;;;;;;5031727;28;20045;-86
2023/05/16 05:56:58;;;;;;;1999.90;999.90;;;10.20;99.90;;;;;;5031488;28;20628;-88
2023/05/16 05:59:24;;;;;;;1999.90;999.90;;;10.30;99.90;;;;;;5032021;28;20037;-82
2023/05/16 06:01:53;;;;;;;1999.90;999.90;;;10.40;99.90;;;;;;5033252;28;20029;-87
2023/05/16 06:04:19;;;;;;;1999.90;999.90;;;10.50;99.90;;;;;;5028948;28;20111;-87
2023/05/16 06:06:45;;;;;;;1999.90;999.90;;;10.70;99.90;;;;;;5037542;28;20029;-87
2023/05/16 06:09:12;;;;;;;1999.90;999.90;;;10.80;99.90;;;;;;5032029;28;20091;-87
2023/05/16 06:11:38;;;;;;;1999.90;999.90;;;10.80;99.90;;;;;;5033638;28;20017;-83
2023/05/16 06:14:04;;;;;;;1999.90;999.90;;;10.80;99.90;;;;;;5031247;28;20040;-89
2023/05/16 06:16:31;;;;;;;1999.90;999.90;;;10.90;99.90;;;;;;5036737;28;20030;-86
2023/05/16 06:18:58;;;;;;;1999.90;999.90;;;11.00;99.90;;;;;;5030679;28;20038;-88
2023/05/16 06:21:23;;;;;;;1999.90;999.90;;;11.10;99.90;;;;;;5019930;28;20032;-87
2023/05/16 06:23:58;;;;;;;1999.90;999.90;;;11.30;99.90;;;;;;5034559;28;20045;-87
2023/05/16 06:26:24;;;;;;;1999.90;999.90;;;11.20;99.90;;;;;;5031673;28;20094;-89
2023/05/16 06:28:49;;;;;;;1999.90;999.90;;;11.30;99.90;;;;;;5029542;28;20044;-84
2023/05/16 06:31:15;;;;;;;1999.90;999.90;;;11.40;99.90;;;;;;5035574;28;20032;-84
2023/05/16 06:33:41;;;;;;;1999.90;999.90;;;11.50;99.90;;;;;;5032182;28;20039;-86
2023/05/16 06:36:07;;;;;;;1999.90;999.90;;;11.70;99.90;;;;;;5034576;28;20152;-86
2023/05/16 06:38:33;;;;;;;1999.90;999.90;;;12.10;99.90;;;;;;5022421;28;20037;-86
2023/05/16 06:40:58;;;;;;;1999.90;999.90;;;12.00;99.90;;;;;;5028876;28;20126;-85
2023/05/16 06:43:24;;;;;;;1999.90;999.90;;;12.10;99.90;;;;;;5035735;28;20115;-88
2023/05/16 06:45:50;;;;;;;1999.90;999.90;;;11.80;99.90;;;;;;5030159;28;20083;-90
2023/05/16 06:48:17;;;;;;;1999.90;999.90;;;11.90;99.90;;;;;;5033442;28;20060;-88
2023/05/16 06:50:47;;;;;;;1999.90;999.90;;;12.20;99.90;;;;;;5018014;28;20053;-87
2023/05/16 06:53:14;;;;;;;1999.90;999.90;;;11.90;99.90;;;;;;5032280;28;20033;-86
2023/05/16 06:55:40;;;;;;;1999.90;999.90;;;12.00;99.90;;;;;;5017495;28;20276;-88
2023/05/16 06:58:08;;;;;;;1999.90;999.90;;;12.10;99.90;;;;;;5032665;28;20506;-88
2023/05/16 07:00:33;;;;;;;1999.90;999.90;;;12.00;99.90;;;;;;5036972;28;20566;-89
2023/05/16 07:02:59;;;;;;;1999.90;999.90;;;11.60;99.90;;;;;;5026221;28;20110;-88
2023/05/16 07:05:26;;;;;;;1999.90;999.90;;;11.90;99.90;;;;;;5034717;28;20041;-87
2023/05/16 07:07:52;;;;;;;1999.90;999.90;;;11.90;99.90;;;;;;5031788;28;20052;-88
2023/05/16 07:10:18;;;;;;;1999.90;999.90;;;11.90;99.90;;;;;;5031567;28;20017;-85
2023/05/16 07:12:44;;;;;;;1999.90;999.90;;;11.90;99.90;;;;;;5029454;28;20033;-84
2023/05/16 07:15:11;;;;;;;1999.90;999.90;;;11.50;99.80;;;;;;5028856;28;20814;-84
2023/05/16 07:17:37;;;;;;;1999.90;999.90;;;11.70;98.20;;;;;;5012331;28;20029;-86
2023/05/16 07:20:03;;;;;;;1999.90;999.90;;;11.70;99.70;;;;;;5029185;28;20032;-83
2023/05/16 07:22:29;;;;;;;1999.90;999.90;;;12.00;99.90;;;;;;5029266;28;20033;-82
2023/05/16 07:24:59;;;;;;;1999.90;999.90;;;12.20;99.90;;;;;;5029424;28;20037;-79
2023/05/16 07:27:25;;;;;;;1999.90;999.90;;;12.00;97.90;;;;;;5022443;28;20034;-83
2023/05/16 07:29:52;;;;;;;1999.90;999.90;;;11.90;99.70;;;;;;5022866;28;20522;-82
2023/05/16 07:32:18;;;;;;;1999.90;999.90;;;12.00;98.60;;;;;;5033622;28;20533;-85
2023/05/16 07:34:44;;;;;;;1999.90;999.90;;;12.10;98.60;;;;;;5040522;28;20038;-81
2023/05/16 07:37:11;;;;;;;1999.90;999.90;;;12.70;99.90;;;;;;5033458;28;20032;-82
2023/05/16 07:39:40;;;;;;;1999.90;999.90;;;12.70;96.00;;;;;;5036006;28;20068;-82
2023/05/16 07:42:07;;;;;;;1999.90;999.90;;;12.40;94.30;;;;;;5033213;28;20060;-89
2023/05/16 07:44:33;;;;;;;1999.90;999.90;;;12.00;99.20;;;;;;5032783;28;20842;-87
2023/05/16 07:46:59;;;;;;;1999.90;999.90;;;11.90;97.60;;;;;;5037859;28;20033;-86
2023/05/16 07:49:26;;;;;;;1999.90;999.90;;;11.70;98.20;;;;;;5036601;28;20033;-84
2023/05/16 07:51:52;;;;;;;1999.90;999.90;;;12.10;97.50;;;;;;5037454;28;20055;-85
2023/05/16 07:54:17;;;;;;;1999.90;999.90;;;12.50;97.70;;;;;;5017636;28;20495;-85
2023/05/16 07:56:44;;;;;;;1999.90;999.90;;;12.60;98.80;;;;;;5031745;28;20035;-84
2023/05/16 07:59:10;;;;;;;1999.90;999.90;;;12.50;95.00;;;;;;5035066;28;20065;-85
2023/05/16 08:01:36;;;;;;;1999.90;999.90;;;13.00;98.80;;;;;;5033279;28;20065;-86
2023/05/16 08:04:02;;;;;;;1999.90;999.90;;;13.20;98.00;;;;;;5012590;28;20060;-82
2023/05/16 08:06:28;;;;;;;1999.90;999.90;;;13.00;93.70;;;;;;5037824;28;20057;-83
2023/05/16 08:08:55;;;;;;;1999.90;999.90;;;13.20;94.30;;;;;;5032029;28;20571;-82
2023/05/16 08:11:21;;;;;;;1999.90;999.90;;;13.40;97.40;;;;;;5030198;28;20065;-82
2023/05/16 08:13:47;;;;;;;1999.90;999.90;;;13.30;92.00;;;;;;5033323;28;20030;-85
2023/05/16 08:16:13;;;;;;;1999.90;999.90;;;13.30;93.60;;;;;;5025894;28;20030;-87
2023/05/16 08:18:39;;;;;;;1999.90;999.90;;;13.20;93.60;;;;;;5029944;28;20053;-87
2023/05/16 08:21:05;;;;;;;1999.90;999.90;;;13.00;90.10;;;;;;5033154;28;20029;-88
2023/05/16 08:23:31;;;;;;;1999.90;999.90;;;13.20;90.20;;;;;;5027576;28;20108;-82
2023/05/16 08:25:57;;;;;;;1999.90;999.90;;;12.90;90.80;;;;;;5029645;28;20045;-83
2023/05/16 08:28:23;;;;;;;1999.90;999.90;;;12.60;92.10;;;;;;5038557;28;20068;-82
2023/05/16 08:30:49;;;;;;;1999.90;999.90;;;12.70;91.10;;;;;;5017768;28;20553;-86
2023/05/16 08:33:15;;;;;;;1999.90;999.90;;;12.70;91.50;;;;;;5033399;28;20045;-86
2023/05/16 08:35:44;;;;;;;1999.90;999.90;;;12.80;90.70;;;;;;5033124;28;20029;-87
2023/05/16 08:38:10;;;;;;;1999.90;999.90;;;13.10;89.60;;;;;;5031214;28;20127;-84
2023/05/16 08:40:35;;;;;;;1999.90;999.90;;;13.10;89.30;;;;;;5034374;28;20514;-86
2023/05/16 08:43:01;;;;;;;1999.90;999.90;;;13.00;90.10;;;;;;5035405;28;20417;-86
2023/05/16 08:45:29;;;;;;;1999.90;999.90;;;12.90;89.90;;;;;;5034443;28;20041;-85
2023/05/16 08:47:55;;;;;;;1999.90;999.90;;;12.70;90.30;;;;;;5033540;28;20886;-87
2023/05/16 08:50:26;;;;;;;1999.90;999.90;;;12.60;89.50;;;;;;5034563;28;20238;-89
2023/05/16 08:52:52;;;;;;;1999.90;999.90;;;12.60;87.90;;;;;;5037787;28;20026;-86
2023/05/16 08:55:20;;;;;;;1999.90;999.90;;;12.70;90.10;;;;;;5030217;28;20115;-87
2023/05/16 08:57:48;;;;;;;1999.90;999.90;;;12.90;88.20;;;;;;5033968;28;20056;-85
2023/05/16 09:00:14;;;;;;;1999.90;999.90;;;13.00;86.60;;;;;;5021042;28;20038;-80
2023/05/16 09:02:43;;;;;;;1999.90;999.90;;;13.20;87.00;;;;;;5037281;28;20041;-82
2023/05/16 09:05:11;;;;;;;1999.90;999.90;;;13.50;84.10;;;;;;5038596;28;20037;-84
2023/05/16 09:07:37;;;;;;;1999.90;999.90;;;14.10;85.20;;;;;;5033228;28;20025;-86
2023/05/16 09:10:05;;;;;;;1999.90;999.90;;;14.40;83.20;;;;;;5036166;28;20514;-86
2023/05/16 09:12:32;;;;;;;1999.90;999.90;;;14.60;80.70;;;;;;5017239;28;20120;-87
2023/05/16 09:14:58;;;;;;;1999.90;999.90;;;14.60;79.30;;;;;;5035156;28;20037;-86
2023/05/16 09:17:25;;;;;;;1999.90;999.90;;;14.80;79.40;;;;;;5030598;28;20025;-86
2023/05/16 09:19:55;;;;;;;1999.90;999.90;;;14.70;78.90;;;;;;5030458;28;20126;-86
2023/05/16 09:22:23;;;;;;;1999.90;999.90;;;14.70;79.90;;;;;;5031862;28;20021;-89
2023/05/16 09:24:49;;;;;;;1999.90;999.90;;;14.50;80.00;;;;;;5002364;28;20041;-88
2023/05/16 09:27:15;;;;;;;1999.90;999.90;;;14.30;81.00;;;;;;5032845;28;20530;-88
2023/05/16 09:29:49;;;;;;;1999.90;999.90;;;13.80;80.80;;;;;;5026004;28;20034;-83
2023/05/16 09:32:16;;;;;;;1999.90;999.90;;;13.40;81.80;;;;;;5032594;28;20025;-86
2023/05/16 09:34:48;;;;;;;1999.90;999.90;;;13.20;83.50;;;;;;5030687;28;20553;-89
2023/05/16 09:37:17;;;;;;;1999.90;999.90;;;12.60;83.90;;;;;;5035627;28;20095;-85
2023/05/16 09:39:50;;;;;;;1999.90;999.90;;;12.50;86.40;;;;;;5032733;28;20037;-84
2023/05/16 09:42:17;;;;;;;1999.90;999.90;;;12.70;86.00;;;;;;5036960;28;20033;-86
2023/05/16 09:44:53;;;;;;;1999.90;999.90;;;12.70;86.60;;;;;;5030645;28;20033;-84
2023/05/16 09:47:20;;;;;;;1999.90;999.90;;;12.60;87.10;;;;;;5020730;28;20044;-86
2023/05/16 09:49:51;;;;;;;1999.90;999.90;;;12.50;87.60;;;;;;5033430;28;20506;-87
2023/05/16 09:52:18;;;;;;;1999.90;999.90;;;12.50;87.80;;;;;;5036742;28;20041;-89
2023/05/16 09:54:49;;;;;;;1999.90;999.90;;;12.30;87.30;;;;;;5035353;28;20029;-88
2023/05/16 09:57:19;;;;;;;1999.90;999.90;;;12.50;87.40;;;;;;5034733;28;20029;-88
2023/05/16 09:59:47;;;;;;;1999.90;999.90;;;12.30;86.90;;;;;;5029768;28;20407;-89
2023/05/16 10:02:14;;;;;;;1999.90;999.90;;;12.30;88.60;;;;;;5031282;28;20582;-87
2023/05/16 10:04:40;;;;;;;1999.90;999.90;;;12.20;87.40;;;;;;5030719;28;20044;-89
2023/05/16 10:07:08;;;;;;;1999.90;999.90;;;12.30;87.80;;;;;;5049220;28;20033;-86
2023/05/16 10:09:35;;;;;;;1999.90;999.90;;;12.30;87.20;;;;;;5035313;28;20060;-88
2023/05/16 10:12:03;;;;;;;1999.90;999.90;;;12.30;87.60;;;;;;5029416;28;20034;-85
2023/05/16 10:14:33;;;;;;;1999.90;999.90;;;12.20;87.40;;;;;;5032407;28;20079;-88
2023/05/16 10:17:00;;;;;;;1999.90;999.90;;;12.20;90.00;;;;;;5036009;28;20109;-87
2023/05/16 10:19:26;;;;;;;1999.90;999.90;;;12.20;90.50;;;;;;5030946;28;20029;-88
2023/05/16 10:21:59;;;;;;;1999.90;999.90;;;12.00;91.70;;;;;;5033929;28;20029;-86
2023/05/16 10:24:50;;;;;;;1999.90;999.90;;;11.90;91.40;;;;;;5027441;28;20040;-91
2023/05/16 10:27:19;;;;;;;1999.90;999.90;;;12.00;92.00;;;;;;5030128;28;20042;-90
2023/05/16 10:29:48;;;;;;;1999.90;999.90;;;11.80;91.60;;;;;;5033126;28;20104;-87
2023/05/16 10:32:14;;;;;;;1999.90;999.90;;;11.70;92.10;;;;;;5033546;28;20030;-88
2023/05/16 10:34:41;;;;;;;1999.90;999.90;;;12.00;92.90;;;;;;5031035;28;20029;-87
2023/05/16 10:37:08;;;;;;;1999.90;999.90;;;12.00;92.40;;;;;;5037154;28;20032;-84
2023/05/16 10:39:36;;;;;;;1999.90;999.90;;;12.10;93.20;;;;;;5030367;28;20045;-85
2023/05/16 10:42:02;;;;;;;1999.90;999.90;;;12.00;92.80;;;;;;5034904;28;20065;-85
2023/05/16 10:44:32;;;;;;;1999.90;999.90;;;12.00;93.00;;;;;;5032366;28;20105;-86
2023/05/16 10:47:00;;;;;;;1999.90;999.90;;;12.30;93.00;;;;;;5030976;28;20033;-86
2023/05/16 10:49:26;;;;;;;1999.90;999.90;;;12.70;92.40;;;;;;5029106;28;20032;-88
2023/05/16 10:52:16;;;;;;;1999.90;999.90;;;12.60;92.30;;;;;;5037252;28;20045;-87
2023/05/16 10:54:48;;;;;;;1999.90;999.90;;;12.90;92.80;;;;;;5031784;28;20025;-87
2023/05/16 10:57:21;;;;;;;1999.90;999.90;;;12.80;90.90;;;;;;5032263;28;20026;-87
2023/05/16 10:59:50;;;;;;;1999.90;999.90;;;12.70;90.50;;;;;;5033405;28;20065;-86
2023/05/16 11:02:28;;;;;;;1999.90;999.90;;;12.70;90.80;;;;;;5034953;28;20026;-88
2023/05/16 11:04:58;;;;;;;1999.90;999.90;;;12.70;90.50;;;;;;5035854;28;20127;-82
2023/05/16 11:07:25;;;;;;;1999.90;999.90;;;12.80;90.90;;;;;;5029624;28;20029;-85
2023/05/16 11:10:08;;;;;;;1999.90;999.90;;;12.70;90.00;;;;;;5030517;28;20037;-87
2023/05/16 11:12:41;;;;;;;1999.90;999.90;;;12.80;89.20;;;;;;5031708;28;20025;-86
2023/05/16 11:15:27;;;;;;;1999.90;999.90;;;12.70;88.70;;;;;;5027206;28;20025;-87
2023/05/16 11:18:15;;;;;;;1999.90;999.90;;;13.00;89.20;;;;;;5031727;28;20037;-86
2023/05/16 11:20:41;;;;;;;1999.90;999.90;;;13.20;87.00;;;;;;5030866;28;20116;-83
2023/05/16 11:23:16;;;;;;;1999.90;999.90;;;13.90;85.20;;;;;;5019369;28;20035;-83
2023/05/16 11:25:49;;;;;;;1999.90;999.90;;;13.90;83.50;;;;;;5032588;28;20040;-86
2023/05/16 11:28:16;;;;;;;1999.90;999.90;;;14.10;82.00;;;;;;5034531;28;20053;-88
2023/05/16 11:30:54;;;;;;;1999.90;999.90;;;14.80;80.70;;;;;;5033420;28;20028;-88
2023/05/16 11:33:19;;;;;;;1999.90;999.90;;;15.40;77.70;;;;;;5023806;28;20087;-83
2023/05/16 11:36:06;;;;;;;1999.90;999.90;;;15.10;76.10;;;;;;5024432;28;20113;-81
2023/05/16 11:38:32;;;;;;;1999.90;999.90;;;15.20;79.00;;;;;;5027311;28;20038;-82
2023/05/16 11:41:06;;;;;;;1999.90;999.90;;;14.80;77.60;;;;;;5027979;28;20030;-85
2023/05/16 11:43:43;;;;;;;1999.90;999.90;;;15.00;77.30;;;;;;5020227;28;20092;-85
2023/05/16 11:46:13;;;;;;;1999.90;999.90;;;15.10;76.60;;;;;;5025848;28;20499;-84
2023/05/16 11:48:39;;;;;;;1999.90;999.90;;;14.70;76.80;;;;;;5025639;28;20026;-81
2023/05/16 11:51:05;;;;;;;1999.90;999.90;;;14.10;75.90;;;;;;5028341;28;20032;-84
2023/05/16 11:53:30;;;;;;;1999.90;999.90;;;14.20;78.60;;;;;;5025375;28;20025;-83
2023/05/16 11:55:59;;;;;;;1999.90;999.90;;;14.80;77.90;;;;;;5030713;28;20028;-86
2023/05/16 11:58:25;;;;;;;1999.90;999.90;;;15.00;76.20;;;;;;5034275;28;20056;-83
2023/05/16 12:00:51;;;;;;;1999.90;999.90;;;15.10;74.80;;;;;;5030928;28;20045;-79
2023/05/16 12:03:19;;;;;;;1999.90;999.90;;;15.30;72.70;;;;;;5030013;28;20398;-84
2023/05/16 12:05:52;;;;;;;1999.90;999.90;;;15.90;72.70;;;;;;5032150;28;20029;-85
2023/05/16 12:08:20;;;;;;;1999.90;999.90;;;14.90;72.30;;;;;;5037895;28;20027;-84